Time;durP1;ratioP1;P1;durP2;ratioP2;P2;SDS_P1;SDS_P2;PMS_P1;PMS_P2;Temp;Humidity;BMP_temperature;BMP_pressure;BME280_temperature;BME280_humidity;BME280_pressure;Samples;Min_cycle;Max_cycle;Signal;HPM_P1;HPM_P2
2023/08/11 00:01:41;;;;;;;3.57;1.57;;;20.30;99.90;;;;;;4970759;28;20179;-80
2023/08/11 00:04:07;;;;;;;4.97;1.93;;;20.30;99.90;;;;;;4966755;28;20183;-80
2023/08/11 00:06:32;;;;;;;3.17;1.80;;;20.20;99.90;;;;;;4972880;28;20597;-79
2023/08/11 00:08:59;;;;;;;4.00;2.50;;;20.20;99.90;;;;;;4968843;28;20291;-80
2023/08/11 00:11:26;;;;;;;3.27;2.40;;;20.20;99.90;;;;;;4951480;28;20207;-79
2023/08/11 00:13:52;;;;;;;4.10;2.37;;;20.20;99.90;;;;;;4971129;28;20588;-79
2023/08/11 00:16:18;;;;;;;2.63;1.80;;;20.20;99.90;;;;;;4986935;28;21216;-79
2023/08/11 00:18:45;;;;;;;3.10;2.30;;;20.10;99.90;;;;;;4975672;28;20583;-79
2023/08/11 00:21:12;;;;;;;5.03;2.13;;;20.10;99.90;;;;;;4953696;28;20584;-79
2023/08/11 00:23:39;;;;;;;3.23;2.13;;;20.10;99.90;;;;;;4956937;28;20682;-79
2023/08/11 00:26:06;;;;;;;2.73;2.20;;;20.10;99.90;;;;;;4971216;28;20592;-79
2023/08/11 00:28:32;;;;;;;4.37;2.80;;;20.10;99.90;;;;;;4966935;28;20606;-79
2023/08/11 00:30:58;;;;;;;4.03;2.00;;;20.10;99.90;;;;;;4974828;28;20656;-78
2023/08/11 00:33:23;;;;;;;3.30;2.10;;;20.10;99.90;;;;;;4960917;28;20592;-79
2023/08/11 00:35:49;;;;;;;3.40;2.50;;;20.00;99.90;;;;;;4965373;28;20215;-79
2023/08/11 00:38:15;;;;;;;2.70;2.10;;;20.00;99.90;;;;;;4975765;28;20606;-78
2023/08/11 00:40:41;;;;;;;4.80;2.00;;;20.00;99.90;;;;;;4974428;28;20211;-79
2023/08/11 00:43:06;;;;;;;5.87;2.47;;;20.00;99.90;;;;;;4957918;28;20203;-79
2023/08/11 00:45:33;;;;;;;3.83;2.20;;;19.90;99.90;;;;;;4975340;28;20828;-78
2023/08/11 00:47:59;;;;;;;4.77;2.13;;;19.90;99.90;;;;;;4990763;28;20179;-79
2023/08/11 00:50:25;;;;;;;3.60;2.40;;;19.80;99.90;;;;;;4974467;28;20988;-79
2023/08/11 00:52:51;;;;;;;5.83;2.40;;;19.80;99.90;;;;;;4975325;28;20598;-79
2023/08/11 00:55:18;;;;;;;3.03;1.97;;;19.80;99.90;;;;;;4974256;28;20579;-78
2023/08/11 00:57:46;;;;;;;4.20;2.10;;;19.80;99.90;;;;;;4973197;28;20626;-78
2023/08/11 01:00:13;;;;;;;3.53;2.10;;;19.80;99.90;;;;;;4968276;28;20633;-78
2023/08/11 01:02:44;;;;;;;2.60;2.00;;;19.70;99.90;;;;;;4989968;28;20595;-78
2023/08/11 01:05:11;;;;;;;3.40;2.53;;;19.70;99.90;;;;;;4974925;28;20613;-78
2023/08/11 01:07:56;;;;;;;4.93;2.47;;;19.70;99.90;;;;;;4988365;28;21177;-78
2023/08/11 01:10:46;;;;;;;3.10;1.80;;;19.70;99.90;;;;;;4977140;28;20718;-78
2023/08/11 01:13:18;;;;;;;3.20;1.97;;;19.60;99.90;;;;;;4970418;28;20584;-78
2023/08/11 01:15:59;;;;;;;4.40;2.20;;;19.60;99.90;;;;;;4963902;28;20635;-77
2023/08/11 01:18:28;;;;;;;3.87;2.00;;;19.50;99.90;;;;;;4976460;28;20640;-78
2023/08/11 01:21:05;;;;;;;2.50;1.93;;;19.50;99.90;;;;;;4987864;28;20674;-78
2023/08/11 01:23:32;;;;;;;4.80;2.50;;;19.50;99.90;;;;;;4969284;28;20711;-78
2023/08/11 01:25:58;;;;;;;3.47;2.37;;;19.40;99.90;;;;;;4965268;28;20595;-77
2023/08/11 01:28:23;;;;;;;3.90;2.00;;;19.40;99.90;;;;;;4973771;28;20625;-79
2023/08/11 01:30:49;;;;;;;3.60;2.03;;;19.40;99.90;;;;;;4968486;28;20619;-78
2023/08/11 01:33:15;;;;;;;4.33;1.73;;;19.40;99.90;;;;;;4976051;28;20596;-79
2023/08/11 01:35:41;;;;;;;3.97;1.60;;;19.30;99.90;;;;;;4986308;28;20296;-79
2023/08/11 01:38:08;;;;;;;6.20;2.10;;;19.30;99.90;;;;;;4963593;28;20591;-79
2023/08/11 01:40:35;;;;;;;3.40;2.43;;;19.30;99.90;;;;;;4946747;28;20204;-79
2023/08/11 01:43:03;;;;;;;3.83;2.00;;;19.30;99.90;;;;;;4973436;28;20637;-79
2023/08/11 01:45:29;;;;;;;3.50;2.60;;;19.20;99.90;;;;;;4953897;28;21169;-79
2023/08/11 01:47:55;;;;;;;2.40;1.63;;;19.20;99.90;;;;;;4985458;28;20922;-79
2023/08/11 01:50:22;;;;;;;4.87;2.33;;;19.20;99.90;;;;;;4968874;28;20639;-79
2023/08/11 01:52:49;;;;;;;3.63;2.00;;;19.10;99.90;;;;;;4987166;28;20583;-79
2023/08/11 01:55:16;;;;;;;3.57;2.70;;;19.10;99.90;;;;;;4967585;28;20702;-79
2023/08/11 01:57:43;;;;;;;5.10;2.50;;;19.10;99.90;;;;;;4972811;28;20638;-79
2023/08/11 02:00:12;;;;;;;3.93;2.37;;;19.10;99.90;;;;;;4968355;28;20627;-79
2023/08/11 02:02:42;;;;;;;3.20;1.57;;;19.10;99.90;;;;;;4972811;28;20593;-79
2023/08/11 02:05:12;;;;;;;6.43;1.60;;;19.10;99.90;;;;;;4989518;28;20638;-79
2023/08/11 02:07:44;;;;;;;4.00;1.70;;;19.00;99.90;;;;;;4972925;28;20595;-79
2023/08/11 02:10:13;;;;;;;3.87;1.93;;;19.00;99.90;;;;;;4968854;28;21220;-79
2023/08/11 02:12:42;;;;;;;4.70;1.87;;;19.00;99.90;;;;;;4953737;28;20604;-79
2023/08/11 02:15:11;;;;;;;2.70;2.07;;;19.00;99.90;;;;;;4953934;28;20208;-80
2023/08/11 02:17:37;;;;;;;2.77;1.47;;;19.00;99.90;;;;;;4955011;28;20663;-79
2023/08/11 02:20:17;;;;;;;2.17;1.73;;;18.90;99.90;;;;;;4945189;29;20569;-80
2023/08/11 02:22:43;;;;;;;3.20;2.07;;;18.90;99.90;;;;;;4953020;28;21158;-80
2023/08/11 02:25:10;;;;;;;3.47;1.80;;;18.90;99.90;;;;;;4945037;29;20591;-80
2023/08/11 02:27:36;;;;;;;4.07;2.07;;;18.90;99.90;;;;;;4969725;28;21022;-80
2023/08/11 02:30:05;;;;;;;3.23;1.83;;;18.90;99.90;;;;;;4963915;28;20721;-80
2023/08/11 02:32:32;;;;;;;2.73;1.63;;;18.80;99.90;;;;;;4973384;28;20607;-79
2023/08/11 02:34:58;;;;;;;3.43;1.93;;;18.80;99.90;;;;;;4972326;28;20626;-81
2023/08/11 02:37:24;;;;;;;3.50;2.40;;;18.80;99.90;;;;;;4972270;28;20677;-79
2023/08/11 02:39:54;;;;;;;4.50;1.80;;;18.80;99.90;;;;;;4972013;28;20228;-79
2023/08/11 02:42:20;;;;;;;3.30;1.47;;;18.70;99.90;;;;;;4957938;28;20584;-79
2023/08/11 02:44:48;;;;;;;4.10;2.13;;;18.70;99.90;;;;;;4962980;28;20682;-79
2023/08/11 02:47:14;;;;;;;5.37;1.60;;;18.70;99.90;;;;;;4973773;28;20685;-80
2023/08/11 02:49:40;;;;;;;2.20;1.60;;;18.70;99.90;;;;;;4939893;28;21243;-79
2023/08/11 02:52:06;;;;;;;4.30;1.70;;;18.60;99.90;;;;;;4953833;28;20592;-79
2023/08/11 02:54:32;;;;;;;2.97;1.63;;;18.60;99.90;;;;;;4968839;28;20594;-79
2023/08/11 02:56:58;;;;;;;3.40;2.20;;;18.60;99.90;;;;;;4954797;28;20219;-80
2023/08/11 02:59:24;;;;;;;2.80;1.60;;;18.60;99.90;;;;;;4954008;28;20685;-80
2023/08/11 03:01:50;;;;;;;4.30;2.30;;;18.60;99.90;;;;;;4945744;28;20616;-80
2023/08/11 03:04:16;;;;;;;4.00;1.33;;;18.60;99.90;;;;;;4957033;28;20580;-80
2023/08/11 03:06:44;;;;;;;3.60;1.80;;;18.50;99.90;;;;;;4987059;28;20599;-80
2023/08/11 03:09:10;;;;;;;3.40;1.50;;;18.50;99.90;;;;;;4974696;28;20614;-80
2023/08/11 03:11:36;;;;;;;4.50;1.87;;;18.50;99.90;;;;;;4965870;28;20594;-80
2023/08/11 03:14:02;;;;;;;2.37;1.50;;;18.50;99.90;;;;;;4986371;28;20592;-80
2023/08/11 03:16:29;;;;;;;2.17;1.57;;;18.50;99.90;;;;;;4968058;28;20207;-80
2023/08/11 03:18:55;;;;;;;3.23;1.80;;;18.50;99.90;;;;;;4970774;28;20627;-80
2023/08/11 03:21:21;;;;;;;2.50;1.57;;;18.40;99.90;;;;;;4948011;29;20651;-80
2023/08/11 03:23:49;;;;;;;2.90;2.10;;;18.40;99.90;;;;;;4966790;28;20180;-80
2023/08/11 03:26:15;;;;;;;2.10;1.50;;;18.40;99.90;;;;;;4991286;28;20675;-80
2023/08/11 03:28:41;;;;;;;3.13;1.47;;;18.40;99.90;;;;;;4956384;28;20596;-80
2023/08/11 03:31:08;;;;;;;4.70;1.57;;;18.40;99.90;;;;;;4944903;28;20672;-79
2023/08/11 03:33:39;;;;;;;3.23;1.40;;;18.40;99.90;;;;;;4952994;28;20671;-80
2023/08/11 03:36:09;;;;;;;3.50;1.67;;;18.40;99.90;;;;;;4976764;28;20803;-79
2023/08/11 03:38:36;;;;;;;3.20;1.93;;;18.40;99.90;;;;;;4952195;29;20595;-79
2023/08/11 03:41:01;;;;;;;5.20;2.00;;;18.30;99.90;;;;;;4970861;28;21181;-79
2023/08/11 03:43:27;;;;;;;2.43;1.97;;;18.40;99.90;;;;;;4971586;28;20587;-79
2023/08/11 03:45:53;;;;;;;2.40;1.77;;;18.40;99.90;;;;;;4971039;28;20601;-80
2023/08/11 03:48:19;;;;;;;2.53;1.50;;;18.40;99.90;;;;;;4963288;28;20610;-79
2023/08/11 03:50:45;;;;;;;3.83;1.40;;;18.40;99.90;;;;;;4971240;28;20627;-79
2023/08/11 03:53:13;;;;;;;5.73;2.03;;;18.40;99.90;;;;;;4971349;28;21168;-79
2023/08/11 03:55:41;;;;;;;7.33;2.40;;;18.40;99.90;;;;;;4958734;28;20602;-79
2023/08/11 03:58:07;;;;;;;4.17;1.73;;;18.40;99.90;;;;;;4991695;28;20168;-80
2023/08/11 04:00:33;;;;;;;4.40;2.03;;;18.40;99.90;;;;;;4959406;28;20610;-79
2023/08/11 04:03:09;;;;;;;2.90;1.43;;;18.40;99.90;;;;;;4959632;28;20566;-79
2023/08/11 04:05:35;;;;;;;2.73;1.30;;;18.40;99.90;;;;;;4959163;28;20687;-79
2023/08/11 04:08:04;;;;;;;3.40;1.87;;;18.40;99.90;;;;;;4973385;28;20587;-79
2023/08/11 04:10:31;;;;;;;2.97;1.50;;;18.40;99.90;;;;;;4970094;28;20635;-79
2023/08/11 04:12:57;;;;;;;3.33;1.67;;;18.50;99.90;;;;;;4974934;28;20588;-79
2023/08/11 04:15:24;;;;;;;2.50;1.60;;;18.40;99.90;;;;;;4975314;28;20586;-79
2023/08/11 04:17:50;;;;;;;2.67;1.83;;;18.40;99.90;;;;;;4967566;28;20667;-79
2023/08/11 04:20:16;;;;;;;7.40;1.87;;;18.40;99.90;;;;;;4961855;28;20639;-79
2023/08/11 04:22:42;;;;;;;3.70;1.70;;;18.40;99.90;;;;;;4987080;28;20607;-79
2023/08/11 04:25:10;;;;;;;5.00;1.90;;;18.40;99.90;;;;;;4963762;28;20613;-80
2023/08/11 04:27:40;;;;;;;4.43;2.00;;;18.40;99.90;;;;;;4951413;28;20580;-79
2023/08/11 04:30:08;;;;;;;2.60;1.50;;;18.40;99.90;;;;;;4987138;28;20627;-80
2023/08/11 04:32:34;;;;;;;3.00;1.40;;;18.40;99.90;;;;;;4969780;28;20591;-80
2023/08/11 04:35:04;;;;;;;3.83;1.90;;;18.40;99.90;;;;;;4964285;28;20954;-80
2023/08/11 04:37:30;;;;;;;2.80;1.57;;;18.40;99.90;;;;;;4979286;28;20639;-80
2023/08/11 04:39:56;;;;;;;2.83;1.53;;;18.40;99.90;;;;;;4980736;28;20651;-79
2023/08/11 04:42:22;;;;;;;3.70;2.33;;;18.40;99.90;;;;;;4990580;28;20182;-80
2023/08/11 04:44:47;;;;;;;5.73;1.80;;;18.50;99.90;;;;;;4991781;28;20195;-80
2023/08/11 04:47:13;;;;;;;4.63;1.97;;;18.40;99.90;;;;;;4962663;28;20187;-80
2023/08/11 04:49:39;;;;;;;5.30;2.10;;;18.40;99.90;;;;;;4964527;28;20678;-80
2023/08/11 04:52:05;;;;;;;2.73;1.87;;;18.40;99.90;;;;;;4954798;28;20207;-80
2023/08/11 04:54:31;;;;;;;3.00;2.43;;;18.40;99.90;;;;;;4968616;28;21222;-80
2023/08/11 04:56:57;;;;;;;3.83;1.73;;;18.40;99.90;;;;;;4956969;28;20734;-79
2023/08/11 04:59:23;;;;;;;7.87;2.10;;;18.40;99.90;;;;;;4967702;28;20206;-79
2023/08/11 05:01:48;;;;;;;5.03;1.80;;;18.40;99.90;;;;;;4972065;28;20687;-80
2023/08/11 05:04:14;;;;;;;4.83;2.50;;;18.50;99.90;;;;;;4987345;28;20741;-80
2023/08/11 05:06:40;;;;;;;3.70;2.37;;;18.50;99.90;;;;;;4961014;28;20184;-79
2023/08/11 05:09:06;;;;;;;7.00;1.97;;;18.50;99.90;;;;;;4965641;28;20611;-79
2023/08/11 05:11:32;;;;;;;4.07;2.00;;;18.50;99.90;;;;;;4959737;28;20588;-79
2023/08/11 05:13:58;;;;;;;2.83;1.87;;;18.50;99.90;;;;;;4957122;28;20626;-79
2023/08/11 05:16:24;;;;;;;4.53;1.97;;;18.60;99.90;;;;;;4960670;28;20204;-79
2023/08/11 05:18:49;;;;;;;5.03;2.60;;;18.60;99.90;;;;;;4986392;28;20572;-79
2023/08/11 05:21:17;;;;;;;2.60;1.83;;;18.60;99.90;;;;;;4972004;28;20594;-79
2023/08/11 05:23:43;;;;;;;3.63;1.83;;;18.70;99.90;;;;;;4967114;28;20183;-79
2023/08/11 05:26:09;;;;;;;9.20;1.90;;;18.70;99.90;;;;;;4960746;28;20683;-79
2023/08/11 05:28:35;;;;;;;4.30;1.80;;;18.80;99.90;;;;;;4986047;28;20180;-79
2023/08/11 05:31:03;;;;;;;3.93;2.10;;;18.80;99.90;;;;;;4987955;28;20656;-79
2023/08/11 05:33:29;;;;;;;3.23;1.83;;;18.80;99.90;;;;;;4965390;28;21211;-80
2023/08/11 05:35:55;;;;;;;6.10;1.93;;;18.90;99.90;;;;;;4965815;28;20726;-79
2023/08/11 05:38:25;;;;;;;2.50;1.60;;;18.90;99.90;;;;;;4950148;28;20586;-79
2023/08/11 05:40:53;;;;;;;3.70;1.97;;;19.00;99.90;;;;;;4956982;28;20208;-79
2023/08/11 05:43:18;;;;;;;5.00;2.10;;;19.10;99.90;;;;;;4966844;28;20590;-79
2023/08/11 05:45:44;;;;;;;5.10;2.40;;;19.20;99.90;;;;;;4966429;28;20183;-79
2023/08/11 05:48:10;;;;;;;7.30;2.20;;;19.20;99.90;;;;;;4972555;28;20532;-78
2023/08/11 05:50:37;;;;;;;4.60;1.70;;;19.30;99.90;;;;;;4958809;28;20192;-80
2023/08/11 05:53:03;;;;;;;3.20;1.63;;;19.50;99.90;;;;;;4964130;28;20607;-79
2023/08/11 05:55:32;;;;;;;3.60;2.20;;;19.60;99.90;;;;;;4965003;28;21420;-79
2023/08/11 05:58:01;;;;;;;5.00;2.10;;;19.70;99.90;;;;;;4956841;28;20188;-79
2023/08/11 06:00:27;;;;;;;8.50;2.07;;;19.80;99.90;;;;;;4968135;28;20622;-80
2023/08/11 06:02:53;;;;;;;3.60;1.97;;;20.00;99.90;;;;;;4972311;28;20572;-79
2023/08/11 06:05:21;;;;;;;3.80;2.43;;;20.40;99.90;;;;;;4962879;28;20647;-80
2023/08/11 06:07:50;;;;;;;5.70;1.87;;;20.70;99.90;;;;;;4968693;28;20595;-79
2023/08/11 06:10:16;;;;;;;3.57;1.47;;;20.90;99.90;;;;;;4970215;28;20624;-79
2023/08/11 06:12:42;;;;;;;3.10;1.93;;;21.00;99.90;;;;;;4969113;28;20606;-80
2023/08/11 06:15:08;;;;;;;8.80;2.60;;;21.00;99.90;;;;;;4954513;28;20224;-79
2023/08/11 06:17:36;;;;;;;3.13;2.00;;;21.00;99.90;;;;;;4968995;28;20215;-79
2023/08/11 06:20:04;;;;;;;3.90;2.03;;;21.10;99.90;;;;;;4954256;28;20684;-80
2023/08/11 06:22:31;;;;;;;2.80;1.80;;;21.50;99.90;;;;;;4952965;28;20592;-81
2023/08/11 06:24:57;;;;;;;4.97;1.80;;;22.10;99.90;;;;;;4970280;28;20588;-80
2023/08/11 06:27:22;;;;;;;4.40;1.70;;;22.80;99.90;;;;;;4963331;28;21006;-80
2023/08/11 06:29:48;;;;;;;4.57;2.13;;;23.70;99.90;;;;;;4964822;28;20215;-79
2023/08/11 06:32:14;;;;;;;3.47;1.67;;;24.60;99.90;;;;;;4952824;28;20211;-80
2023/08/11 06:34:40;;;;;;;2.73;1.30;;;25.50;99.90;;;;;;4961374;28;20180;-79
2023/08/11 06:37:05;;;;;;;3.80;1.80;;;26.40;99.90;;;;;;4977794;28;20770;-79
2023/08/11 06:39:31;;;;;;;5.10;1.90;;;27.40;99.90;;;;;;4959714;28;21378;-78
2023/08/11 06:41:57;;;;;;;4.43;1.70;;;28.20;99.90;;;;;;4970203;28;20705;-77
2023/08/11 06:44:44;;;;;;;4.22;1.90;;;28.50;99.90;;;;;;4975295;28;20721;-77
2023/08/11 06:47:10;;;;;;;4.67;1.70;;;29.30;99.90;;;;;;4963002;28;20215;-77
2023/08/11 06:49:36;;;;;;;2.17;1.43;;;29.50;99.90;;;;;;4967447;28;20657;-77
2023/08/11 06:52:01;;;;;;;8.00;2.27;;;29.90;99.90;;;;;;4962239;28;20591;-78
2023/08/11 06:54:27;;;;;;;5.60;1.40;;;30.60;99.90;;;;;;4957060;28;20193;-78
2023/08/11 06:56:53;;;;;;;4.20;1.53;;;30.70;98.50;;;;;;4959400;28;20628;-78
2023/08/11 06:59:19;;;;;;;2.77;1.40;;;31.00;97.40;;;;;;4962286;28;20226;-79
2023/08/11 07:01:44;;;;;;;3.63;1.73;;;31.20;96.30;;;;;;4964300;28;20539;-79
2023/08/11 07:04:10;;;;;;;4.20;1.40;;;31.40;95.30;;;;;;4962302;28;20182;-78
2023/08/11 07:06:36;;;;;;;4.53;1.70;;;31.70;94.10;;;;;;4987443;28;20174;-78
2023/08/11 07:09:01;;;;;;;3.60;1.50;;;31.90;90.50;;;;;;4969731;28;20289;-78
2023/08/11 07:11:27;;;;;;;2.20;1.40;;;32.00;91.00;;;;;;4958115;28;20185;-78
2023/08/11 07:13:53;;;;;;;3.20;1.70;;;32.10;88.40;;;;;;4965052;28;20169;-78
2023/08/11 07:16:19;;;;;;;4.10;2.00;;;32.30;89.00;;;;;;4964593;28;20214;-78
2023/08/11 07:18:44;;;;;;;3.00;1.37;;;32.70;88.20;;;;;;4970924;28;20179;-78
2023/08/11 07:21:10;;;;;;;4.03;2.33;;;33.10;88.80;;;;;;4960187;28;20187;-78
2023/08/11 07:23:36;;;;;;;4.27;1.57;;;33.50;83.90;;;;;;4971279;28;20217;-79
2023/08/11 07:26:01;;;;;;;2.10;1.10;;;33.70;80.90;;;;;;4972208;28;20182;-78
2023/08/11 07:28:27;;;;;;;3.10;1.33;;;33.80;80.50;;;;;;4971145;28;20215;-78
2023/08/11 07:30:53;;;;;;;3.43;1.20;;;33.80;75.50;;;;;;4960767;28;20550;-78
2023/08/11 07:33:19;;;;;;;3.23;2.23;;;33.80;73.10;;;;;;4959832;28;20222;-77
2023/08/11 07:35:44;;;;;;;4.68;1.67;;;33.70;71.00;;;;;;4960299;28;20720;-78
2023/08/11 07:38:10;;;;;;;4.50;1.43;;;33.70;64.90;;;;;;4953976;28;20177;-78
2023/08/11 07:40:36;;;;;;;4.70;1.30;;;33.80;69.30;;;;;;4965880;28;20215;-78
2023/08/11 07:43:02;;;;;;;3.40;1.70;;;34.30;72.10;;;;;;4952915;28;20433;-79
2023/08/11 07:45:28;;;;;;;2.07;1.23;;;34.70;70.30;;;;;;4972882;28;20583;-77
2023/08/11 07:47:53;;;;;;;2.50;1.17;;;35.10;69.60;;;;;;4980601;28;20183;-78
2023/08/11 07:50:20;;;;;;;5.70;1.90;;;35.50;69.90;;;;;;4983828;28;20732;-78
2023/08/11 07:52:46;;;;;;;3.17;1.40;;;35.80;64.00;;;;;;4990252;28;20653;-76
2023/08/11 07:55:14;;;;;;;3.23;1.10;;;36.20;66.80;;;;;;4981117;28;20198;-76
2023/08/11 07:57:41;;;;;;;2.77;1.80;;;36.80;64.50;;;;;;4982797;28;20211;-78
2023/08/11 08:00:13;;;;;;;3.00;1.20;;;37.00;62.80;;;;;;4962512;28;20612;-77
2023/08/11 08:02:54;;;;;;;4.83;1.50;;;37.30;62.00;;;;;;4958578;28;20593;-78
2023/08/11 08:05:20;;;;;;;4.53;1.20;;;37.40;57.30;;;;;;4979751;28;20598;-77
2023/08/11 08:07:47;;;;;;;2.07;1.20;;;37.40;58.50;;;;;;4981199;28;20663;-78
2023/08/11 08:10:14;;;;;;;2.33;1.07;;;37.30;57.00;;;;;;4952416;28;21024;-77
2023/08/11 08:12:45;;;;;;;2.67;1.20;;;37.20;57.00;;;;;;4959077;28;20575;-79
2023/08/11 08:15:11;;;;;;;5.43;1.00;;;37.30;57.00;;;;;;4955058;28;20595;-78
2023/08/11 08:17:38;;;;;;;2.90;1.30;;;37.50;56.60;;;;;;4949469;29;20674;-78
2023/08/11 08:20:08;;;;;;;2.57;1.40;;;37.80;56.40;;;;;;4951237;28;20624;-78
2023/08/11 08:22:34;;;;;;;3.40;1.00;;;37.90;55.20;;;;;;4968255;28;20584;-78
2023/08/11 08:25:00;;;;;;;2.53;1.30;;;38.10;55.60;;;;;;4965075;28;21229;-78
2023/08/11 08:27:27;;;;;;;3.17;1.40;;;38.40;54.20;;;;;;4961565;28;20792;-78
2023/08/11 08:29:54;;;;;;;5.00;1.70;;;38.40;51.10;;;;;;4963331;28;20206;-78
2023/08/11 08:32:20;;;;;;;4.70;1.40;;;38.40;51.50;;;;;;4960420;28;20972;-77
2023/08/11 08:34:47;;;;;;;3.57;1.40;;;38.60;52.30;;;;;;4966264;28;20706;-78
2023/08/11 08:37:14;;;;;;;2.57;1.23;;;38.70;51.30;;;;;;4969409;28;20630;-78
2023/08/11 08:39:40;;;;;;;2.00;1.20;;;38.80;51.40;;;;;;4961535;28;20655;-78
2023/08/11 08:42:06;;;;;;;3.30;1.40;;;39.20;51.90;;;;;;4966837;28;20612;-78
2023/08/11 08:44:35;;;;;;;3.07;1.30;;;39.50;51.10;;;;;;4965746;28;20192;-78
2023/08/11 08:47:04;;;;;;;3.33;1.50;;;39.30;49.80;;;;;;4965721;28;20585;-77
2023/08/11 08:49:30;;;;;;;4.00;1.23;;;39.30;48.60;;;;;;4980141;28;20666;-79
2023/08/11 08:51:57;;;;;;;4.60;1.50;;;39.20;49.10;;;;;;4963579;28;20635;-77
2023/08/11 08:54:23;;;;;;;3.60;1.17;;;39.50;49.50;;;;;;4980682;28;21010;-77
2023/08/11 08:56:53;;;;;;;3.13;1.10;;;39.70;49.60;;;;;;4986130;28;20674;-78
2023/08/11 08:59:20;;;;;;;2.13;0.90;;;40.10;49.80;;;;;;4962388;28;20630;-77
2023/08/11 09:01:47;;;;;;;7.30;1.40;;;40.60;49.30;;;;;;4984702;28;20614;-77
2023/08/11 09:04:15;;;;;;;2.87;1.30;;;41.00;48.80;;;;;;4966215;28;20701;-78
2023/08/11 09:06:41;;;;;;;2.13;1.03;;;41.30;47.80;;;;;;4973532;28;20634;-78
2023/08/11 09:09:09;;;;;;;2.70;1.67;;;41.40;46.60;;;;;;4959012;28;20630;-78
2023/08/11 09:11:35;;;;;;;2.87;1.20;;;41.40;45.80;;;;;;4973925;28;21184;-77
2023/08/11 09:14:04;;;;;;;2.50;1.00;;;41.60;46.10;;;;;;4975041;28;20586;-77
2023/08/11 09:16:32;;;;;;;3.37;1.50;;;42.00;45.40;;;;;;4973352;28;20203;-77
2023/08/11 09:18:58;;;;;;;1.57;1.00;;;42.40;45.00;;;;;;4974351;28;20665;-77
2023/08/11 09:21:24;;;;;;;2.30;1.20;;;42.70;45.10;;;;;;4956570;28;21001;-78
2023/08/11 09:23:54;;;;;;;2.73;1.10;;;43.20;45.40;;;;;;4974728;28;20191;-78
2023/08/11 09:26:28;;;;;;;2.33;1.20;;;43.70;44.40;;;;;;4964418;28;20239;-78
2023/08/11 09:28:55;;;;;;;2.57;1.20;;;43.80;44.10;;;;;;4960055;28;20939;-78
2023/08/11 09:31:25;;;;;;;2.87;1.03;;;44.10;43.00;;;;;;4953737;28;20590;-78
2023/08/11 09:33:52;;;;;;;3.92;1.90;;;44.30;42.90;;;;;;4954198;28;20767;-78
2023/08/11 09:36:18;;;;;;;3.70;1.23;;;44.20;38.90;;;;;;4971441;28;20219;-78
2023/08/11 09:38:48;;;;;;;2.90;1.10;;;44.60;40.90;;;;;;4973679;28;20633;-77
2023/08/11 09:41:15;;;;;;;2.07;1.00;;;45.00;40.90;;;;;;4987021;28;20634;-77
2023/08/11 09:43:48;;;;;;;2.37;1.17;;;45.30;40.10;;;;;;4956846;28;20587;-78
2023/08/11 09:46:14;;;;;;;2.13;1.20;;;45.50;38.80;;;;;;4986996;28;20800;-77
2023/08/11 09:48:40;;;;;;;2.57;1.23;;;45.40;38.20;;;;;;4957808;28;20948;-79
2023/08/11 09:51:12;;;;;;;2.67;1.10;;;45.10;37.40;;;;;;4965154;28;20582;-79
2023/08/11 09:53:40;;;;;;;2.00;1.00;;;44.90;37.60;;;;;;4943838;28;20599;-79
2023/08/11 09:56:07;;;;;;;2.30;1.20;;;45.00;37.70;;;;;;4962700;28;20599;-79
2023/08/11 09:58:37;;;;;;;3.30;1.30;;;45.20;37.70;;;;;;4969424;28;20612;-79
2023/08/11 10:01:06;;;;;;;2.93;1.50;;;45.30;37.80;;;;;;4959929;28;20619;-79
2023/08/11 10:03:40;;;;;;;1.77;1.17;;;45.60;37.90;;;;;;4949085;28;20750;-79
2023/08/11 10:06:07;;;;;;;2.27;1.30;;;45.60;36.30;;;;;;4973785;28;20629;-79
2023/08/11 10:08:34;;;;;;;2.07;0.90;;;45.70;35.90;;;;;;4973814;28;20583;-79
2023/08/11 10:11:00;;;;;;;2.17;1.13;;;45.30;35.20;;;;;;4988552;28;20617;-79
2023/08/11 10:13:28;;;;;;;2.90;1.13;;;45.30;35.90;;;;;;4973473;28;20646;-79
2023/08/11 10:15:55;;;;;;;2.50;1.30;;;45.20;34.80;;;;;;4975953;28;20579;-79
2023/08/11 10:18:22;;;;;;;2.10;1.10;;;44.70;34.60;;;;;;4972264;28;20575;-79
2023/08/11 10:20:51;;;;;;;2.70;1.40;;;44.60;34.60;;;;;;4973160;28;20618;-79
2023/08/11 10:23:20;;;;;;;1.90;1.13;;;44.50;34.40;;;;;;4972159;28;21000;-79
2023/08/11 10:25:47;;;;;;;2.60;1.20;;;44.50;35.10;;;;;;4966814;28;20584;-79
2023/08/11 10:28:14;;;;;;;4.63;1.30;;;44.60;36.00;;;;;;4984526;28;20599;-78
2023/08/11 10:30:40;;;;;;;1.70;1.00;;;44.90;35.50;;;;;;4974924;28;20662;-78
2023/08/11 10:33:07;;;;;;;2.67;1.10;;;45.20;35.80;;;;;;4976389;28;20591;-78
2023/08/11 10:35:36;;;;;;;2.07;1.30;;;45.30;35.10;;;;;;4975632;28;20187;-78
2023/08/11 10:38:04;;;;;;;2.77;1.27;;;45.50;34.90;;;;;;4975369;28;20590;-79
2023/08/11 10:40:40;;;;;;;2.20;1.40;;;45.60;34.20;;;;;;4954370;28;21289;-79
2023/08/11 10:43:06;;;;;;;2.50;1.70;;;45.10;33.20;;;;;;4984979;28;20215;-79
2023/08/11 10:45:33;;;;;;;2.13;1.20;;;45.20;34.10;;;;;;4971384;28;20610;-79
2023/08/11 10:48:06;;;;;;;2.60;1.50;;;45.20;33.30;;;;;;4972625;28;20745;-79
2023/08/11 10:50:32;;;;;;;3.53;1.10;;;44.40;32.60;;;;;;4964254;28;20648;-79
2023/08/11 10:53:19;;;;;;;2.03;1.13;;;44.20;33.60;;;;;;4963085;28;20595;-78
2023/08/11 10:56:02;;;;;;;2.13;1.30;;;44.10;33.60;;;;;;4965475;28;20172;-78
2023/08/11 10:58:31;;;;;;;2.53;1.10;;;43.70;33.50;;;;;;4972555;28;20575;-77
2023/08/11 11:00:57;;;;;;;3.75;2.00;;;43.30;33.90;;;;;;4967365;28;21130;-78
2023/08/11 11:03:23;;;;;;;3.20;1.80;;;43.10;33.40;;;;;;4960853;28;20187;-77
2023/08/11 11:05:50;;;;;;;2.83;1.60;;;42.50;33.20;;;;;;4965505;28;20583;-78
2023/08/11 11:08:16;;;;;;;2.67;1.33;;;42.00;33.40;;;;;;4964699;28;20179;-78
2023/08/11 11:10:41;;;;;;;1.77;1.20;;;41.80;34.00;;;;;;4971344;28;21224;-78
2023/08/11 11:13:08;;;;;;;2.37;1.40;;;41.60;34.20;;;;;;4964498;28;20588;-79
2023/08/11 11:15:33;;;;;;;1.93;1.30;;;41.30;34.60;;;;;;4953295;28;20210;-78
2023/08/11 11:18:00;;;;;;;2.43;1.13;;;41.10;34.50;;;;;;4951933;28;21379;-79
2023/08/11 11:20:27;;;;;;;2.43;1.10;;;41.10;35.30;;;;;;4962006;28;20266;-79
2023/08/11 11:22:56;;;;;;;2.53;1.37;;;41.20;35.60;;;;;;4958462;28;21157;-79
2023/08/11 11:25:22;;;;;;;2.00;1.00;;;41.30;35.40;;;;;;4967509;28;20700;-79
2023/08/11 11:27:48;;;;;;;2.40;1.10;;;41.40;35.30;;;;;;4970776;28;20646;-78
2023/08/11 11:30:15;;;;;;;2.57;1.17;;;41.50;35.50;;;;;;4973316;28;20203;-79
2023/08/11 11:32:42;;;;;;;4.10;1.90;;;41.60;35.40;;;;;;4970814;28;20595;-79
2023/08/11 11:35:08;;;;;;;2.37;1.20;;;41.70;35.50;;;;;;4971200;28;20595;-79
2023/08/11 11:37:34;;;;;;;2.20;1.30;;;41.70;35.20;;;;;;4972283;28;20578;-79
2023/08/11 11:40:04;;;;;;;2.43;1.20;;;41.50;34.70;;;;;;4970513;28;20630;-79
2023/08/11 11:42:31;;;;;;;3.30;2.07;;;41.10;34.50;;;;;;4972019;28;20946;-79
2023/08/11 11:44:58;;;;;;;2.20;1.10;;;40.90;34.80;;;;;;4972264;28;20583;-78
2023/08/11 11:47:26;;;;;;;1.90;1.33;;;40.80;35.20;;;;;;4971791;28;20642;-78
2023/08/11 11:49:56;;;;;;;1.90;1.17;;;40.80;35.60;;;;;;4960197;28;20635;-79
2023/08/11 11:52:22;;;;;;;2.17;1.40;;;40.90;35.60;;;;;;4969128;28;20676;-79
2023/08/11 11:54:52;;;;;;;2.40;1.33;;;40.90;35.60;;;;;;4970852;28;21214;-79
2023/08/11 11:57:19;;;;;;;2.30;0.97;;;41.00;36.00;;;;;;4964801;28;20192;-78
2023/08/11 11:59:48;;;;;;;2.00;1.10;;;41.10;36.00;;;;;;4972271;28;20621;-79
2023/08/11 12:02:17;;;;;;;4.47;1.00;;;41.10;35.60;;;;;;4972675;28;20615;-78
2023/08/11 12:04:44;;;;;;;3.30;1.27;;;40.90;35.00;;;;;;4971095;28;20634;-79
2023/08/11 12:07:30;;;;;;;2.10;1.50;;;40.60;34.80;;;;;;4972111;28;20665;-79
2023/08/11 12:09:56;;;;;;;3.40;1.20;;;40.30;35.10;;;;;;4971967;28;20609;-78
2023/08/11 12:12:31;;;;;;;1.87;0.97;;;40.20;35.30;;;;;;4986614;28;21192;-78
2023/08/11 12:15:02;;;;;;;2.07;1.20;;;40.10;35.30;;;;;;4971272;28;20183;-78
2023/08/11 12:17:35;;;;;;;2.43;1.20;;;39.80;35.00;;;;;;4974481;28;20591;-78
2023/08/11 12:20:06;;;;;;;2.27;1.30;;;39.50;35.30;;;;;;4990472;28;20626;-78
2023/08/11 12:22:32;;;;;;;1.50;0.80;;;39.40;35.90;;;;;;4975146;28;20582;-78
2023/08/11 12:24:58;;;;;;;2.73;1.03;;;39.30;35.90;;;;;;4975508;28;20642;-78
2023/08/11 12:27:24;;;;;;;4.17;1.13;;;39.30;36.10;;;;;;4967795;28;20219;-78
2023/08/11 12:29:49;;;;;;;3.10;1.70;;;39.30;36.10;;;;;;4974932;28;21268;-78
2023/08/11 12:32:15;;;;;;;1.80;1.00;;;39.30;36.70;;;;;;4975177;28;20175;-77
2023/08/11 12:34:41;;;;;;;1.90;1.30;;;39.20;36.40;;;;;;4990506;28;20643;-78
2023/08/11 12:37:07;;;;;;;3.70;1.10;;;39.10;36.40;;;;;;4974166;28;20184;-79
2023/08/11 12:39:33;;;;;;;2.17;0.90;;;39.00;36.30;;;;;;4973769;28;20230;-78
2023/08/11 12:41:59;;;;;;;2.13;1.00;;;38.90;36.00;;;;;;4975548;28;20583;-78
2023/08/11 12:44:25;;;;;;;5.00;1.40;;;38.60;35.80;;;;;;4975495;28;20207;-77
2023/08/11 12:46:50;;;;;;;2.90;1.17;;;38.30;35.70;;;;;;4989554;28;20203;-77
2023/08/11 12:49:16;;;;;;;2.10;1.20;;;37.90;35.80;;;;;;4973582;28;20617;-78